Terminal Aerodrome Forecast
Issued by NWS

Home | Current Version | Previous Version | Text Only | Print | Product List | Glossary On
Versions: 1 2 3 4 5 6 7 8 9 10 11 12 13 14 15
000
FTUS44 KTSA 171612 AAB
TAFMLC
TAF AMD
KMLC 171612Z 1716/1812 18006KT P6SM OVC005
      TEMPO 1716/1719 2SM -DZ BR OVC003
     FM171900 18007KT P6SM OVC015
     FM180200 18002KT 4SM BR OVC007=

USA.gov is the U.S. government's official web portal to all federal, state and local government web resources and services.